createdAt,value
2022-12-14T00:01:45.001Z,6.91
2022-12-14T00:04:18.511Z,6.89
2022-12-14T00:06:46.459Z,6.91
2022-12-14T00:09:14.578Z,6.93
2022-12-14T00:11:42.494Z,6.95
2022-12-14T00:14:10.389Z,6.98
2022-12-14T00:16:38.320Z,7.03
2022-12-14T00:19:06.500Z,7.03
2022-12-14T00:21:35.803Z,7.05
2022-12-14T00:24:03.954Z,7.07
2022-12-14T00:26:32.710Z,7.10
2022-12-14T00:29:01.117Z,7.13
2022-12-14T00:31:29.152Z,7.14
2022-12-14T00:33:57.181Z,7.16
2022-12-14T00:36:25.097Z,7.17
2022-12-14T00:38:54.430Z,7.19
2022-12-14T00:41:22.368Z,7.18
2022-12-14T00:43:50.305Z,7.22
2022-12-14T00:46:18.525Z,7.20
2022-12-14T00:48:46.551Z,7.12
2022-12-14T00:51:15.051Z,7.05
2022-12-14T00:53:43.248Z,6.97
2022-12-14T00:56:13.355Z,6.91
2022-12-14T00:58:41.265Z,6.88
2022-12-14T01:01:10.124Z,6.86
2022-12-14T01:03:38.197Z,6.79
2022-12-14T01:06:06.415Z,6.77
2022-12-14T01:08:36.487Z,6.75
2022-12-14T01:11:06.394Z,6.75
2022-12-14T01:13:35.825Z,6.76
2022-12-14T01:16:04.998Z,6.72
2022-12-14T01:18:35.269Z,6.74
2022-12-14T01:21:13.951Z,6.73
2022-12-14T01:23:42.072Z,6.73
2022-12-14T01:26:11.332Z,6.75
2022-12-14T01:28:40.654Z,6.71
2022-12-14T01:31:09.556Z,6.72
2022-12-14T01:33:37.585Z,6.73
2022-12-14T01:36:07.187Z,6.73
2022-12-14T01:38:35.089Z,6.72
2022-12-14T01:41:03.054Z,6.75
2022-12-14T01:43:50.999Z,6.75
2022-12-14T01:46:21.671Z,6.72
2022-12-14T01:48:49.632Z,6.73
2022-12-14T01:51:17.540Z,6.70
2022-12-14T01:53:45.439Z,6.73
2022-12-14T01:56:13.364Z,6.69
2022-12-14T01:58:41.386Z,6.68
2022-12-14T02:01:11.602Z,6.68
2022-12-14T02:03:40.293Z,6.69
2022-12-14T02:06:09.403Z,6.69
2022-12-14T02:08:37.356Z,6.69
2022-12-14T02:11:05.314Z,6.74
2022-12-14T02:13:33.920Z,6.72
2022-12-14T02:16:01.860Z,6.68
2022-12-14T02:18:32.366Z,6.67
2022-12-14T02:21:21.368Z,6.65
2022-12-14T02:24:18.819Z,6.60
2022-12-14T02:27:28.166Z,6.58
2022-12-14T02:30:07.249Z,6.59
2022-12-14T02:33:10.887Z,6.55
2022-12-14T02:35:45.699Z,6.55
2022-12-14T02:38:28.378Z,6.51
2022-12-14T02:41:02.001Z,6.55
2022-12-14T02:43:32.462Z,6.53
2022-12-14T02:46:05.883Z,6.56
2022-12-14T02:48:36.914Z,6.47
2022-12-14T02:51:09.730Z,6.50
2022-12-14T02:53:40.125Z,6.52
2022-12-14T02:56:09.774Z,6.51
2022-12-14T02:58:38.475Z,6.48
2022-12-14T03:01:09.567Z,6.49
2022-12-14T03:03:37.563Z,6.49
2022-12-14T03:06:14.936Z,6.46
2022-12-14T03:08:44.061Z,6.46
2022-12-14T03:11:12.715Z,6.43
2022-12-14T03:13:42.318Z,6.45
2022-12-14T03:16:14.031Z,6.43
2022-12-14T03:18:43.828Z,6.39
2022-12-14T03:21:12.956Z,6.37
2022-12-14T03:23:42.287Z,6.35
2022-12-14T03:26:13.570Z,6.33
2022-12-14T03:28:45.710Z,6.37
2022-12-14T03:31:16.517Z,6.35
2022-12-14T03:33:44.456Z,6.37
2022-12-14T03:36:14.783Z,6.33
2022-12-14T03:38:44.191Z,6.30
2022-12-14T03:41:15.579Z,6.29
2022-12-14T03:43:49.843Z,6.28
2022-12-14T03:46:22.673Z,6.26
2022-12-14T03:48:51.747Z,6.22
2022-12-14T03:51:21.959Z,6.17
2022-12-14T03:53:51.692Z,6.15
2022-12-14T03:56:20.890Z,6.14
2022-12-14T03:58:57.201Z,6.12
2022-12-14T04:01:29.966Z,6.10
2022-12-14T04:03:59.345Z,6.13
2022-12-14T04:06:31.475Z,6.12
2022-12-14T04:09:06.008Z,6.11
2022-12-14T04:11:53.317Z,6.12
2022-12-14T04:14:40.130Z,6.07
2022-12-14T04:17:29.595Z,6.05
2022-12-14T04:19:58.208Z,6.00
2022-12-14T04:22:29.654Z,6.03
2022-12-14T04:25:16.352Z,6.02
2022-12-14T04:27:45.501Z,5.99
2022-12-14T04:30:12.564Z,6.04
2022-12-14T04:32:43.209Z,6.04
2022-12-14T04:35:13.315Z,6.06
2022-12-14T04:37:42.363Z,6.06
2022-12-14T04:40:11.662Z,6.03
2022-12-14T04:42:43.146Z,6.06
2022-12-14T04:45:13.194Z,5.99
2022-12-14T04:47:46.153Z,6.00
2022-12-14T04:50:15.016Z,6.05
2022-12-14T04:52:45.191Z,6.06
2022-12-14T04:55:15.834Z,6.07
2022-12-14T04:57:46.594Z,5.98
2022-12-14T05:00:15.138Z,6.04
2022-12-14T05:02:53.376Z,6.02
2022-12-14T05:05:25.088Z,5.99
2022-12-14T05:07:54.726Z,5.98
2022-12-14T05:10:25.727Z,5.97
2022-12-14T05:12:57.017Z,5.99
2022-12-14T05:15:26.757Z,5.97
2022-12-14T05:17:56.024Z,5.85
2022-12-14T05:20:24.404Z,5.98
2022-12-14T05:22:52.360Z,5.96
2022-12-14T05:25:20.278Z,5.96
2022-12-14T05:27:48.221Z,5.95
2022-12-14T05:30:16.282Z,5.95
2022-12-14T05:32:44.188Z,5.93
2022-12-14T05:35:13.872Z,5.91
2022-12-14T05:37:41.802Z,5.90
2022-12-14T05:40:10.548Z,5.89
2022-12-14T05:42:44.362Z,5.88
2022-12-14T05:45:14.090Z,5.84
2022-12-14T05:47:42.120Z,5.81
2022-12-14T05:50:10.486Z,5.81
2022-12-14T05:52:39.872Z,5.80
2022-12-14T05:55:08.786Z,5.79
2022-12-14T05:57:36.717Z,5.77
2022-12-14T06:00:05.140Z,5.76
2022-12-14T06:02:33.165Z,5.73
2022-12-14T06:05:01.157Z,5.69
2022-12-14T06:07:29.064Z,5.70
2022-12-14T06:09:58.376Z,5.68
2022-12-14T06:12:26.438Z,5.68
2022-12-14T06:14:54.345Z,5.67
2022-12-14T06:17:22.279Z,5.66
2022-12-14T06:19:50.530Z,5.68
2022-12-14T06:22:18.869Z,5.67
2022-12-14T06:24:46.839Z,5.65
2022-12-14T06:27:16.147Z,5.68
2022-12-14T06:29:44.096Z,5.66
2022-12-14T06:32:12.038Z,5.65
2022-12-14T06:34:42.401Z,5.64
2022-12-14T06:37:10.516Z,5.63
2022-12-14T06:39:38.867Z,5.63
2022-12-14T06:42:06.998Z,5.65
2022-12-14T06:44:36.317Z,5.64
2022-12-14T06:47:04.325Z,5.63
2022-12-14T06:49:32.511Z,5.64
2022-12-14T06:52:00.535Z,5.63
2022-12-14T06:54:28.506Z,5.64
2022-12-14T06:56:56.490Z,5.62
2022-12-14T06:59:24.479Z,5.63
2022-12-14T07:01:53.922Z,5.61
2022-12-14T07:04:22.933Z,5.61
2022-12-14T07:06:50.899Z,5.61
2022-12-14T07:09:18.992Z,5.57
2022-12-14T07:11:47.041Z,5.58
2022-12-14T07:14:16.048Z,5.56
2022-12-14T07:16:48.260Z,5.54
2022-12-14T07:19:18.594Z,5.52
2022-12-14T07:21:46.633Z,5.54
2022-12-14T07:24:14.802Z,5.53
2022-12-14T07:26:42.781Z,5.54
2022-12-14T07:29:12.090Z,5.53
2022-12-14T07:31:40.401Z,5.55
2022-12-14T07:34:08.600Z,5.57
2022-12-14T07:36:37.891Z,5.62
2022-12-14T07:39:06.022Z,5.60
2022-12-14T07:41:34.127Z,5.63
2022-12-14T07:44:02.124Z,5.63
2022-12-14T07:46:30.851Z,5.67
2022-12-14T07:48:59.279Z,5.67
2022-12-14T07:51:28.639Z,5.69
2022-12-14T07:53:57.999Z,5.73
2022-12-14T07:56:26.647Z,5.72
2022-12-14T07:58:56.188Z,5.72
2022-12-14T08:01:25.340Z,5.71
2022-12-14T08:03:54.167Z,5.72
2022-12-14T08:06:22.742Z,5.71
2022-12-14T08:08:50.645Z,5.71
2022-12-14T08:11:22.255Z,5.69
2022-12-14T08:13:53.881Z,5.66
2022-12-14T08:16:21.885Z,5.72
2022-12-14T08:18:49.874Z,5.73
2022-12-14T08:21:20.978Z,5.71
2022-12-14T08:23:49.010Z,5.73
2022-12-14T08:26:17.236Z,5.61
2022-12-14T08:28:47.595Z,5.76
2022-12-14T08:31:16.397Z,5.78
2022-12-14T08:33:44.726Z,5.81
2022-12-14T08:36:13.717Z,5.80
2022-12-14T08:38:42.010Z,5.83
2022-12-14T08:41:10.854Z,5.88
2022-12-14T08:43:38.853Z,5.83
2022-12-14T08:46:11.387Z,5.90
2022-12-14T08:48:39.455Z,5.94
2022-12-14T08:51:08.436Z,5.95
2022-12-14T08:53:36.567Z,5.97
2022-12-14T08:56:05.982Z,5.92
2022-12-14T08:58:34.552Z,5.98
2022-12-14T09:01:03.918Z,6.00
2022-12-14T09:03:33.675Z,6.02
2022-12-14T09:06:05.158Z,6.04
2022-12-14T09:08:33.252Z,6.05
2022-12-14T09:11:01.299Z,6.06
2022-12-14T09:13:29.952Z,6.07
2022-12-14T09:15:59.249Z,6.09
2022-12-14T09:18:27.656Z,6.14
2022-12-14T09:20:57.368Z,6.14
2022-12-14T09:23:25.646Z,6.16
2022-12-14T09:26:00.856Z,6.19
2022-12-14T09:28:29.067Z,6.21
2022-12-14T09:30:58.064Z,6.21
2022-12-14T09:33:26.372Z,6.23
2022-12-14T09:35:54.537Z,6.27
2022-12-14T09:38:23.842Z,6.27
2022-12-14T09:40:58.557Z,6.28
2022-12-14T09:43:37.445Z,6.32
2022-12-14T09:46:14.304Z,6.36
2022-12-14T09:48:42.739Z,6.38
2022-12-14T09:51:13.684Z,6.45
2022-12-14T09:53:43.271Z,6.47
2022-12-14T09:56:14.330Z,6.46
2022-12-14T09:58:52.647Z,6.55
2022-12-14T10:01:33.811Z,6.61
2022-12-14T10:04:04.029Z,6.69
2022-12-14T10:06:35.896Z,6.70
2022-12-14T10:09:11.066Z,6.72
2022-12-14T10:11:42.420Z,6.74
2022-12-14T10:14:14.959Z,6.80
2022-12-14T10:16:51.581Z,6.79
2022-12-14T10:19:29.230Z,6.79
2022-12-14T10:21:59.992Z,6.81
2022-12-14T10:24:32.560Z,6.83
2022-12-14T10:27:00.571Z,6.88
2022-12-14T10:29:32.207Z,6.85
2022-12-14T10:32:05.261Z,6.88
2022-12-14T10:34:33.523Z,6.88
2022-12-14T10:37:10.710Z,6.93
2022-12-14T10:39:49.617Z,6.96
2022-12-14T10:42:21.171Z,6.96
2022-12-14T10:45:09.605Z,7.00
2022-12-14T10:47:43.122Z,6.99
2022-12-14T10:50:18.847Z,7.02
2022-12-14T10:52:46.924Z,7.05
2022-12-14T10:55:18.646Z,7.08
2022-12-14T10:57:46.627Z,7.11
2022-12-14T11:00:22.609Z,7.15
2022-12-14T11:02:53.673Z,7.16
2022-12-14T11:05:31.196Z,7.19
2022-12-14T11:08:03.871Z,7.23
2022-12-14T11:10:36.031Z,7.20
2022-12-14T11:13:05.111Z,7.24
2022-12-14T11:15:34.675Z,7.25
2022-12-14T11:18:05.190Z,7.29
2022-12-14T11:20:33.454Z,7.28
2022-12-14T11:23:07.883Z,7.32
2022-12-14T11:25:39.627Z,7.39
2022-12-14T11:28:18.654Z,7.47
2022-12-14T11:31:00.971Z,7.57
2022-12-14T11:33:33.038Z,7.65
2022-12-14T11:36:01.035Z,7.79
2022-12-14T11:38:29.965Z,7.90
2022-12-14T11:41:00.118Z,7.98
2022-12-14T11:43:29.161Z,7.97
2022-12-14T11:45:57.266Z,8.08
2022-12-14T11:48:25.930Z,8.15
2022-12-14T11:50:54.883Z,8.22
2022-12-14T11:53:23.542Z,8.38
2022-12-14T11:55:56.454Z,8.58
2022-12-14T11:58:28.003Z,8.75
2022-12-14T12:00:58.587Z,8.98
2022-12-14T12:03:28.867Z,8.61
2022-12-14T12:06:01.125Z,8.58
2022-12-14T12:08:30.359Z,8.93
2022-12-14T12:11:02.423Z,9.21
2022-12-14T12:13:33.135Z,9.55
2022-12-14T12:16:02.019Z,10.09
2022-12-14T12:18:34.105Z,10.18
2022-12-14T12:21:04.735Z,9.98
2022-12-14T12:23:35.004Z,9.86
2022-12-14T12:26:04.752Z,9.76
2022-12-14T12:28:35.262Z,9.74
2022-12-14T12:31:10.485Z,9.66
2022-12-14T12:33:41.897Z,9.56
2022-12-14T12:36:09.867Z,9.43
2022-12-14T12:38:50.199Z,9.20
2022-12-14T12:41:26.727Z,9.13
2022-12-14T12:43:59.016Z,9.14
2022-12-14T12:46:28.575Z,9.18
2022-12-14T12:48:59.659Z,9.24
2022-12-14T12:51:28.571Z,9.22
2022-12-14T12:53:57.874Z,9.12
2022-12-14T12:56:27.849Z,9.08
2022-12-14T12:59:00.034Z,8.95
2022-12-14T13:01:30.425Z,8.78
2022-12-14T13:04:00.159Z,8.68
2022-12-14T13:06:32.434Z,8.59
2022-12-14T13:09:02.334Z,8.54
2022-12-14T13:11:32.630Z,8.47
2022-12-14T13:14:04.574Z,8.30
2022-12-14T13:16:33.771Z,8.44
2022-12-14T13:19:25.319Z,8.42
2022-12-14T13:21:54.618Z,8.45
2022-12-14T13:24:24.250Z,8.44
2022-12-14T13:27:01.801Z,8.45
2022-12-14T13:29:38.416Z,8.40
2022-12-14T13:32:08.890Z,8.35
2022-12-14T13:34:42.924Z,8.42
2022-12-14T13:37:44.421Z,8.33
2022-12-14T13:40:50.828Z,8.31
2022-12-14T13:43:32.885Z,8.33
2022-12-14T13:46:07.537Z,8.37
2022-12-14T13:48:37.396Z,8.45
2022-12-14T13:51:06.971Z,8.55
2022-12-14T13:53:37.276Z,8.63
2022-12-14T13:56:05.426Z,8.72
2022-12-14T13:58:34.897Z,8.83
2022-12-14T14:01:04.325Z,8.84
2022-12-14T14:04:22.410Z,8.97
2022-12-14T14:06:50.559Z,8.98
2022-12-14T14:09:59.373Z,9.03
2022-12-14T14:12:38.347Z,9.06
2022-12-14T14:16:18.945Z,9.06
2022-12-14T14:18:33.986Z,9.08
2022-12-14T14:21:32.945Z,9.04
2022-12-14T14:24:01.428Z,8.97
2022-12-14T14:26:30.603Z,9.02
2022-12-14T14:29:30.466Z,9.10
2022-12-14T14:31:59.969Z,9.29
2022-12-14T14:34:37.446Z,9.42
2022-12-14T14:37:17.447Z,9.51
2022-12-14T14:40:13.295Z,9.72
2022-12-14T14:42:35.786Z,9.84
2022-12-14T14:45:04.693Z,10.07
2022-12-14T14:47:34.544Z,10.20
2022-12-14T14:50:03.890Z,10.30
2022-12-14T14:52:59.861Z,10.23
2022-12-14T14:56:02.341Z,9.87
2022-12-14T14:58:32.760Z,9.56
2022-12-14T15:01:04.557Z,9.27
2022-12-14T15:03:44.997Z,8.98
2022-12-14T15:06:15.679Z,8.85
2022-12-14T15:08:49.495Z,8.68
2022-12-14T15:11:18.921Z,8.55
2022-12-14T15:13:48.995Z,8.46
2022-12-14T15:16:39.263Z,8.33
2022-12-14T15:19:23.858Z,8.31
2022-12-14T15:21:53.205Z,8.29
2022-12-14T15:24:22.877Z,8.30
2022-12-14T15:26:51.234Z,8.28
2022-12-14T15:29:22.504Z,8.30
2022-12-14T15:31:58.903Z,8.25
2022-12-14T15:34:27.393Z,8.24
2022-12-14T15:36:55.379Z,8.20
2022-12-14T15:39:33.656Z,8.14
2022-12-14T15:42:15.153Z,8.05
2022-12-14T15:44:50.326Z,7.97
2022-12-14T15:47:25.927Z,7.91
2022-12-14T15:49:59.712Z,7.87
2022-12-14T15:52:30.776Z,7.83
2022-12-14T15:55:00.391Z,7.79
2022-12-14T15:57:28.447Z,7.72
2022-12-14T15:59:57.125Z,7.66
2022-12-14T16:02:26.558Z,7.60
2022-12-14T16:04:54.678Z,7.52
2022-12-14T16:07:23.950Z,7.45
2022-12-14T16:09:52.709Z,7.42
2022-12-14T16:12:24.595Z,7.37
2022-12-14T16:14:54.438Z,7.34
2022-12-14T16:17:23.925Z,7.27
2022-12-14T16:19:59.662Z,7.27
2022-12-14T16:22:28.526Z,7.23
2022-12-14T16:25:12.761Z,7.22
2022-12-14T16:27:43.289Z,7.17
2022-12-14T16:30:21.913Z,7.14
2022-12-14T16:32:50.738Z,7.07
2022-12-14T16:35:20.469Z,7.01
2022-12-14T16:37:50.099Z,6.93
2022-12-14T16:40:27.974Z,6.95
2022-12-14T16:42:57.281Z,6.93
2022-12-14T16:46:10.303Z,6.91
2022-12-14T16:48:46.318Z,6.90
2022-12-14T16:52:05.673Z,6.89
2022-12-14T16:54:27.183Z,6.88
2022-12-14T16:56:58.403Z,6.89
2022-12-14T16:59:30.361Z,6.86
2022-12-14T17:01:58.576Z,6.82
2022-12-14T17:04:32.696Z,6.81
2022-12-14T17:07:00.842Z,6.76
2022-12-14T17:09:29.747Z,6.72
2022-12-14T17:12:00.159Z,6.68
2022-12-14T17:14:29.963Z,6.65
2022-12-14T17:16:59.989Z,6.60
2022-12-14T17:19:30.490Z,6.51
2022-12-14T17:21:58.816Z,6.51
2022-12-14T17:24:26.831Z,6.49
2022-12-14T17:26:54.744Z,6.46
2022-12-14T17:29:23.388Z,6.44
2022-12-14T17:31:54.942Z,6.46
2022-12-14T17:34:22.892Z,6.41
2022-12-14T17:36:51.073Z,6.41
2022-12-14T17:39:20.384Z,6.39
2022-12-14T17:41:48.393Z,6.40
2022-12-14T17:44:17.126Z,6.42
2022-12-14T17:46:45.348Z,6.43
2022-12-14T17:49:15.161Z,6.44
2022-12-14T17:51:44.145Z,6.41
2022-12-14T17:54:16.155Z,6.37
2022-12-14T17:59:12.095Z,6.44
2022-12-14T18:01:40.964Z,6.44
2022-12-14T18:04:09.193Z,6.37
2022-12-14T18:06:38.611Z,6.44
2022-12-14T18:09:07.925Z,6.43
2022-12-14T18:11:39.245Z,6.42
2022-12-14T18:14:15.523Z,6.45
2022-12-14T18:16:43.547Z,6.39
2022-12-14T18:19:12.208Z,6.38
2022-12-14T18:21:41.530Z,6.36
2022-12-14T18:24:11.899Z,6.36
2022-12-14T18:26:40.145Z,6.33
2022-12-14T18:29:08.085Z,6.30
2022-12-14T18:31:37.504Z,6.30
2022-12-14T18:34:05.777Z,6.29
2022-12-14T18:36:33.757Z,6.30
2022-12-14T18:39:03.152Z,6.29
2022-12-14T18:41:31.249Z,6.29
2022-12-14T18:44:00.543Z,6.28
2022-12-14T18:46:28.612Z,6.27
2022-12-14T18:48:56.655Z,6.27
2022-12-14T18:51:26.960Z,6.25
2022-12-14T18:53:55.619Z,6.25
2022-12-14T18:56:25.505Z,6.24
2022-12-14T18:58:53.706Z,6.24
2022-12-14T19:01:26.174Z,6.24
2022-12-14T19:03:55.183Z,6.24
2022-12-14T19:09:15.316Z,6.18
2022-12-14T19:11:46.987Z,6.22
2022-12-14T19:14:15.202Z,6.24
2022-12-14T19:16:43.118Z,6.22
2022-12-14T19:19:11.795Z,6.21
2022-12-14T19:21:39.762Z,6.16
2022-12-14T19:24:08.680Z,6.13
2022-12-14T19:26:38.693Z,6.13
2022-12-14T19:29:08.045Z,6.12
2022-12-14T19:31:36.023Z,6.09
2022-12-14T19:34:03.989Z,6.09
2022-12-14T19:36:31.911Z,6.06
2022-12-14T19:39:00.137Z,6.04
2022-12-14T19:41:28.152Z,6.03
2022-12-14T19:43:57.040Z,6.03
2022-12-14T19:46:26.418Z,5.98
2022-12-14T19:48:54.403Z,5.97
2022-12-14T19:51:22.912Z,5.96
2022-12-14T19:53:52.894Z,5.91
2022-12-14T19:56:20.838Z,5.88
2022-12-14T19:58:48.810Z,5.82
2022-12-14T20:01:17.674Z,5.75
2022-12-14T20:03:47.196Z,5.70
2022-12-14T20:06:15.328Z,5.64
2022-12-14T20:08:43.294Z,5.60
2022-12-14T20:11:12.003Z,5.53
2022-12-14T20:13:39.964Z,5.45
2022-12-14T20:16:08.044Z,5.44
2022-12-14T20:18:36.100Z,5.39
2022-12-14T20:21:06.435Z,5.33
2022-12-14T20:23:35.238Z,5.33
2022-12-14T20:26:03.382Z,5.28
2022-12-14T20:28:31.290Z,5.27
2022-12-14T20:31:00.573Z,5.24
2022-12-14T20:33:30.754Z,5.22
2022-12-14T20:35:59.095Z,5.18
2022-12-14T20:38:28.455Z,5.16
2022-12-14T20:40:59.268Z,5.14
2022-12-14T20:43:27.393Z,5.11
2022-12-14T20:45:55.906Z,5.06
2022-12-14T20:48:23.907Z,5.02
2022-12-14T20:50:55.056Z,5.00
2022-12-14T20:53:28.692Z,4.94
2022-12-14T20:55:57.544Z,4.90
2022-12-14T20:58:25.455Z,4.90
2022-12-14T21:00:53.915Z,4.91
2022-12-14T21:03:22.046Z,4.87
2022-12-14T21:05:50.071Z,4.85
2022-12-14T21:08:18.053Z,4.83
2022-12-14T21:10:47.424Z,4.87
2022-12-14T21:13:14.331Z,4.88
2022-12-14T21:15:42.409Z,4.93
2022-12-14T21:18:10.378Z,4.94
2022-12-14T21:20:38.370Z,4.96
2022-12-14T21:23:06.366Z,4.98
2022-12-14T21:25:34.430Z,4.98
2022-12-14T21:28:03.744Z,5.00
2022-12-14T21:30:31.702Z,4.97
2022-12-14T21:32:59.774Z,4.97
2022-12-14T21:35:27.971Z,4.97
2022-12-14T21:37:56.018Z,4.95
2022-12-14T21:40:41.201Z,4.95
2022-12-14T21:43:10.606Z,4.90
2022-12-14T21:45:38.572Z,4.89
2022-12-14T21:48:06.850Z,4.87
2022-12-14T21:50:34.814Z,4.88
2022-12-14T21:53:02.731Z,4.89
2022-12-14T21:55:30.654Z,4.89
2022-12-14T21:58:15.955Z,4.88
2022-12-14T22:00:45.329Z,4.87
2022-12-14T22:03:13.397Z,4.88
2022-12-14T22:05:41.363Z,4.91
2022-12-14T22:08:09.307Z,4.92
2022-12-14T22:10:37.276Z,4.92
2022-12-14T22:13:05.508Z,4.92
2022-12-14T22:15:33.525Z,4.94
2022-12-14T22:18:02.802Z,4.93
2022-12-14T22:20:30.727Z,4.94
2022-12-14T22:22:58.667Z,4.94
2022-12-14T22:25:26.596Z,4.93
2022-12-14T22:27:54.532Z,4.92
2022-12-14T22:30:24.849Z,4.93
2022-12-14T22:32:55.090Z,4.97
2022-12-14T22:35:24.420Z,5.00
2022-12-14T22:37:52.349Z,5.02
2022-12-14T22:40:20.264Z,5.02
2022-12-14T22:42:48.220Z,5.07
2022-12-14T22:45:16.331Z,5.07
2022-12-14T22:47:44.337Z,5.08
2022-12-14T22:50:12.310Z,5.07
2022-12-14T22:52:41.604Z,5.04
2022-12-14T22:55:10.370Z,4.95
2022-12-14T22:57:41.704Z,4.97
2022-12-14T23:00:12.199Z,4.93
2022-12-14T23:02:42.230Z,4.90
2022-12-14T23:05:12.538Z,4.86
2022-12-14T23:07:41.947Z,4.85
2022-12-14T23:10:27.921Z,4.83
2022-12-14T23:13:13.416Z,4.79
2022-12-14T23:15:58.979Z,4.79
2022-12-14T23:18:44.094Z,4.76
2022-12-14T23:21:29.386Z,4.75
2022-12-14T23:24:16.459Z,4.73
2022-12-14T23:27:07.281Z,4.71
2022-12-14T23:29:54.418Z,4.67
2022-12-14T23:32:39.643Z,4.67
2022-12-14T23:35:26.055Z,4.67
2022-12-14T23:38:11.226Z,4.66
2022-12-14T23:40:57.970Z,4.71
2022-12-14T23:43:43.193Z,4.67
2022-12-14T23:46:28.630Z,4.69
2022-12-14T23:49:16.154Z,4.69
2022-12-14T23:52:01.961Z,4.72
2022-12-14T23:54:47.601Z,4.71
2022-12-14T23:57:34.682Z,4.71
